KTCC/TCC METAR and TAF weather

Enter ICAO airport designator
Station Type Date Time Source
KTCC METAR 2020/09/19 16:53 UTC NOAA

KTCC 191653Z AUTO 22012KT 10SM CLR 24/09 A3023 RMK AO2 SLP183 T02440089


Station Type Date Time Source
KTCC Decoded METAR 2020/09/19 16:53 UTC NOAA

TUCUMCARI MUNICIPAL AIRPORT , NM, United States (KTCC) 35-11N 103-36W 1235M
Sep 19, 2020 - 12:53 PM EDT / 2020.09.19 1653 UTC
Wind: from the SW (220 degrees) at 14 MPH (12 KT):0
Visibility: 10 mile(s):0
Sky conditions: clear
Temperature: 75.9 F (24.4 C)
Dew Point: 48.0 F (8.9 C)
Relative Humidity: 37%
Pressure (altimeter): 30.23 in. Hg (1023 hPa)
ob: KTCC 191653Z AUTO 22012KT 10SM CLR 24/09 A3023 RMK AO2 SLP183 T02440089
cycle: 17

Station Type Date Time Source
KTCC TAF 2020/09/19 18:22 UTC NOAA

TAF KTCC 191720Z 1918/2018 22015G22KT P6SM FEW120
FM200200 19008KT P6SM SKC
FM201400 22015G22KT P6SM SKC

Example: see airport list